Time;durP1;ratioP1;P1;durP2;ratioP2;P2;SDS_P1;SDS_P2;PMS_P1;PMS_P2;Temp;Humidity;BMP_temperature;BMP_pressure;BME280_temperature;BME280_humidity;BME280_pressure;Samples;Min_cycle;Max_cycle;Signal;HPM_P1;HPM_P2
2021/03/05 00:00:37;;;;;;;21.17;14.20;;;8.30;90.40;;;;;;4253690;27;20054;-72
2021/03/05 00:02:40;;;;;;;20.05;14.05;;;8.60;91.30;;;;;;4232831;28;20066;-73
2021/03/05 00:05:02;;;;;;;21.30;15.52;;;8.60;91.50;;;;;;4258472;27;20050;-72
2021/03/05 00:07:05;;;;;;;23.67;15.75;;;8.60;90.00;;;;;;4249216;27;20055;-72
2021/03/05 00:09:06;;;;;;;20.23;15.23;;;8.50;90.20;;;;;;4250784;27;20043;-72
2021/03/05 00:11:08;;;;;;;22.38;16.73;;;8.40;91.70;;;;;;4251337;27;20339;-72
2021/03/05 00:13:10;;;;;;;18.27;13.52;;;8.40;89.80;;;;;;4251435;27;20043;-72
2021/03/05 00:15:13;;;;;;;19.27;14.20;;;8.50;91.80;;;;;;4252311;27;20551;-72
2021/03/05 00:17:15;;;;;;;14.18;11.30;;;8.60;90.20;;;;;;4248519;27;20110;-72
2021/03/05 00:19:17;;;;;;;19.75;14.05;;;8.60;91.80;;;;;;4249250;27;20081;-71
2021/03/05 00:21:18;;;;;;;19.08;14.73;;;8.30;89.50;;;;;;4253500;27;20039;-72
2021/03/05 00:23:21;;;;;;;17.20;12.77;;;8.50;90.60;;;;;;4253114;27;20269;-72
2021/03/05 00:25:23;;;;;;;22.52;12.75;;;8.10;86.80;;;;;;4251332;27;20043;-71
2021/03/05 00:27:25;;;;;;;17.23;13.70;;;7.90;89.50;;;;;;4253080;27;20076;-71
2021/03/05 00:29:27;;;;;;;20.75;13.60;;;7.60;89.30;;;;;;4253992;27;20363;-71
2021/03/05 00:31:28;;;;;;;15.68;12.05;;;7.50;89.70;;;;;;4235365;28;20051;-72
2021/03/05 00:33:30;;;;;;;18.73;13.98;;;7.80;90.20;;;;;;4252176;27;20609;-73
2021/03/05 00:35:32;;;;;;;17.58;15.13;;;7.60;89.80;;;;;;4254152;27;20071;-72
2021/03/05 00:37:34;;;;;;;16.35;13.60;;;7.70;89.70;;;;;;4253994;27;20441;-72
2021/03/05 00:39:37;;;;;;;17.63;14.68;;;7.70;90.80;;;;;;4252034;27;20051;-73
2021/03/05 00:41:39;;;;;;;15.05;11.10;;;7.60;89.90;;;;;;4250546;27;20047;-71
2021/03/05 00:43:40;;;;;;;20.42;15.02;;;7.80;90.80;;;;;;4232035;28;20043;-72
2021/03/05 00:45:42;;;;;;;15.50;12.05;;;7.90;90.30;;;;;;4253752;27;20118;-72
2021/03/05 00:47:45;;;;;;;15.95;12.52;;;8.30;90.10;;;;;;4252495;27;20114;-72
2021/03/05 00:49:46;;;;;;;17.08;14.05;;;8.40;89.40;;;;;;4253147;27;20053;-72
2021/03/05 00:51:48;;;;;;;15.38;12.98;;;8.30;88.20;;;;;;4250517;28;20103;-72
2021/03/05 00:53:50;;;;;;;19.83;15.35;;;8.10;90.00;;;;;;4254222;28;20234;-72
2021/03/05 00:55:55;;;;;;;18.25;14.65;;;8.40;89.00;;;;;;4253715;28;20047;-72
2021/03/05 00:57:57;;;;;;;20.70;15.45;;;8.50;88.90;;;;;;4251416;28;20057;-73
2021/03/05 00:59:58;;;;;;;17.42;13.20;;;8.10;88.50;;;;;;4245384;28;20044;-72
2021/03/05 01:02:01;;;;;;;15.85;11.63;;;8.30;90.90;;;;;;4245178;28;20741;-72
2021/03/05 01:04:03;;;;;;;16.23;13.02;;;8.60;90.70;;;;;;4245919;28;20061;-72
2021/03/05 01:06:05;;;;;;;15.70;11.90;;;8.50;90.70;;;;;;4246543;28;20051;-71
2021/03/05 01:08:07;;;;;;;18.95;13.32;;;8.50;89.70;;;;;;4246178;28;20054;-72
2021/03/05 01:10:10;;;;;;;13.75;11.63;;;8.60;87.80;;;;;;4246146;28;20051;-72
2021/03/05 01:12:13;;;;;;;15.52;12.00;;;8.50;89.60;;;;;;4246207;28;20046;-72
2021/03/05 01:14:15;;;;;;;12.77;10.43;;;8.20;88.30;;;;;;4246234;28;20088;-72
2021/03/05 01:16:16;;;;;;;16.00;10.68;;;8.00;90.20;;;;;;4246316;28;20119;-72
2021/03/05 01:18:18;;;;;;;12.95;9.48;;;8.00;89.10;;;;;;4245886;28;20139;-72
2021/03/05 01:20:22;;;;;;;14.85;11.25;;;8.20;90.40;;;;;;4228011;28;20047;-72
2021/03/05 01:22:24;;;;;;;12.50;9.63;;;8.00;90.70;;;;;;4246295;28;20043;-72
2021/03/05 01:24:26;;;;;;;13.25;8.95;;;8.10;88.30;;;;;;4246333;28;20486;-72
2021/03/05 01:26:27;;;;;;;12.70;9.63;;;8.10;89.00;;;;;;4246000;28;20445;-72
2021/03/05 01:28:30;;;;;;;10.93;8.32;;;8.00;88.40;;;;;;4245941;28;20050;-72
2021/03/05 01:30:32;;;;;;;15.38;9.82;;;8.30;90.50;;;;;;4247048;27;20043;-72
2021/03/05 01:32:34;;;;;;;9.35;7.20;;;8.60;87.20;;;;;;4249052;27;20682;-72
2021/03/05 01:34:36;;;;;;;11.70;8.50;;;8.70;91.10;;;;;;4249201;27;20406;-72
2021/03/05 01:36:38;;;;;;;13.57;8.75;;;9.00;85.80;;;;;;4249197;27;20039;-71
2021/03/05 01:38:40;;;;;;;12.05;8.15;;;8.60;85.10;;;;;;4249064;27;20039;-71
2021/03/05 01:40:44;;;;;;;16.63;9.63;;;8.00;86.50;;;;;;4249058;27;20043;-71
2021/03/05 01:42:45;;;;;;;12.07;9.43;;;8.00;87.10;;;;;;4249198;27;20388;-71
2021/03/05 01:44:48;;;;;;;10.88;8.68;;;7.60;88.30;;;;;;4249213;27;20468;-71
2021/03/05 01:46:50;;;;;;;9.88;8.35;;;7.90;90.30;;;;;;4249671;27;20078;-71
2021/03/05 01:48:52;;;;;;;10.35;7.53;;;8.10;88.40;;;;;;4249038;27;20058;-71
2021/03/05 01:50:59;;;;;;;11.13;7.30;;;8.40;88.90;;;;;;4249196;27;20055;-71
2021/03/05 01:53:03;;;;;;;8.60;7.00;;;8.10;87.10;;;;;;4249126;27;20047;-71
2021/03/05 01:55:06;;;;;;;11.10;8.48;;;8.20;89.50;;;;;;4249296;27;20503;-72
2021/03/05 01:57:07;;;;;;;12.07;8.02;;;8.10;86.90;;;;;;4249507;27;20621;-71
2021/03/05 01:59:10;;;;;;;12.65;8.57;;;8.20;88.10;;;;;;4249328;27;20046;-71
2021/03/05 02:01:13;;;;;;;9.90;8.13;;;7.80;87.70;;;;;;4249429;27;20448;-72
2021/03/05 02:03:15;;;;;;;9.20;5.75;;;7.70;90.30;;;;;;4252068;27;20059;-71
2021/03/05 02:05:17;;;;;;;10.93;8.30;;;7.90;91.50;;;;;;4249966;27;20477;-71
2021/03/05 02:07:19;;;;;;;12.40;8.30;;;7.90;88.60;;;;;;4249513;27;20121;-72
2021/03/05 02:09:20;;;;;;;8.40;6.13;;;7.90;87.40;;;;;;4249513;27;20047;-72
2021/03/05 02:11:24;;;;;;;12.05;7.85;;;7.90;90.20;;;;;;4250526;27;20055;-71
2021/03/05 02:13:26;;;;;;;11.90;7.85;;;7.80;87.60;;;;;;4251786;27;20043;-71
2021/03/05 02:15:28;;;;;;;11.07;7.80;;;7.60;88.10;;;;;;4251260;27;20111;-71
2021/03/05 02:17:37;;;;;;;11.20;7.13;;;7.40;90.30;;;;;;4251329;27;20065;-71
2021/03/05 02:20:05;;;;;;;9.93;7.45;;;7.40;89.50;;;;;;4251387;27;20071;-72
2021/03/05 02:22:20;;;;;;;9.63;7.38;;;7.60;90.20;;;;;;4248539;27;20043;-71
2021/03/05 02:24:45;;;;;;;9.80;6.53;;;7.30;88.40;;;;;;4248847;27;20061;-71
2021/03/05 02:27:04;;;;;;;9.13;6.57;;;8.00;90.20;;;;;;4248835;27;20043;-71
2021/03/05 02:29:46;;;;;;;8.52;6.47;;;7.70;86.80;;;;;;4249075;27;20054;-71
2021/03/05 02:31:49;;;;;;;8.63;6.80;;;7.60;88.00;;;;;;4248599;27;20051;-71
2021/03/05 02:33:55;;;;;;;7.35;5.97;;;7.40;87.80;;;;;;4248570;27;20506;-71
2021/03/05 02:35:58;;;;;;;8.63;5.90;;;7.30;88.10;;;;;;4248252;27;20043;-71
2021/03/05 02:38:03;;;;;;;11.30;7.10;;;7.50;90.70;;;;;;4248559;27;20065;-72
2021/03/05 02:40:07;;;;;;;5.15;3.58;;;7.40;89.70;;;;;;4248657;27;20548;-71
2021/03/05 02:42:14;;;;;;;7.32;4.25;;;8.30;91.00;;;;;;4248083;27;20494;-71
2021/03/05 02:44:21;;;;;;;11.95;5.88;;;7.90;90.00;;;;;;4248408;27;20054;-71
2021/03/05 02:46:23;;;;;;;8.07;5.38;;;7.80;87.00;;;;;;4248319;27;20054;-72
2021/03/05 02:48:31;;;;;;;7.55;5.00;;;8.00;89.40;;;;;;4248668;27;20101;-71
2021/03/05 02:50:36;;;;;;;6.75;4.43;;;8.00;90.90;;;;;;4230308;28;20048;-71
2021/03/05 02:52:39;;;;;;;9.60;5.68;;;8.10;88.30;;;;;;4248695;27;20116;-71
2021/03/05 02:54:43;;;;;;;10.30;6.63;;;8.20;85.90;;;;;;4248835;27;20376;-72
2021/03/05 02:56:46;;;;;;;12.25;6.32;;;8.00;85.50;;;;;;4248810;27;20043;-71
2021/03/05 02:58:51;;;;;;;7.22;5.22;;;8.00;86.80;;;;;;4249634;27;20456;-71
2021/03/05 03:00:55;;;;;;;11.55;6.65;;;8.00;86.20;;;;;;4249293;27;20043;-71
2021/03/05 03:02:57;;;;;;;6.67;5.20;;;7.80;86.80;;;;;;4249610;27;20047;-71
2021/03/05 03:05:04;;;;;;;9.80;5.45;;;7.70;86.70;;;;;;4250048;27;20475;-71
2021/03/05 03:07:21;;;;;;;10.02;6.20;;;8.10;87.70;;;;;;4249956;27;20049;-71
2021/03/05 03:09:23;;;;;;;8.88;6.10;;;7.80;86.80;;;;;;4250390;27;20043;-74
2021/03/05 03:11:26;;;;;;;9.88;6.85;;;7.80;90.00;;;;;;4249576;27;20593;-71
2021/03/05 03:13:28;;;;;;;9.70;6.55;;;7.90;86.20;;;;;;4249258;27;20043;-71
2021/03/05 03:15:32;;;;;;;11.07;7.03;;;8.00;88.30;;;;;;4248500;27;20057;-71
2021/03/05 03:17:35;;;;;;;6.63;4.72;;;7.50;87.30;;;;;;4249924;27;20075;-71
2021/03/05 03:19:38;;;;;;;12.00;6.13;;;7.70;89.10;;;;;;4250034;27;20082;-74
2021/03/05 03:21:41;;;;;;;7.40;5.63;;;7.50;89.10;;;;;;4249913;27;20456;-71
2021/03/05 03:23:43;;;;;;;8.70;6.70;;;7.50;89.30;;;;;;4249929;27;20054;-71
2021/03/05 03:25:45;;;;;;;9.77;7.18;;;7.40;89.50;;;;;;4231185;28;20047;-71
2021/03/05 03:27:48;;;;;;;9.15;6.97;;;7.00;89.30;;;;;;4249485;27;20047;-72
2021/03/05 03:29:50;;;;;;;9.32;6.88;;;7.00;90.10;;;;;;4248257;27;20046;-71
2021/03/05 03:31:52;;;;;;;11.70;7.43;;;6.70;89.50;;;;;;4249494;27;20103;-71
2021/03/05 03:33:54;;;;;;;11.85;6.60;;;7.40;89.40;;;;;;4250090;27;20093;-71
2021/03/05 03:35:56;;;;;;;11.20;7.55;;;7.30;89.70;;;;;;4249303;27;20338;-71
2021/03/05 03:38:00;;;;;;;8.45;6.95;;;7.20;89.20;;;;;;4249341;27;20047;-71
2021/03/05 03:40:04;;;;;;;11.97;7.43;;;7.50;89.50;;;;;;4249858;27;20070;-71
2021/03/05 03:42:06;;;;;;;10.05;6.93;;;7.40;91.30;;;;;;4231225;28;20457;-70
2021/03/05 03:44:09;;;;;;;13.32;8.20;;;7.70;91.40;;;;;;4250558;27;20559;-71
2021/03/05 03:46:11;;;;;;;13.15;8.57;;;7.60;87.90;;;;;;4251525;27;20502;-71
2021/03/05 03:48:13;;;;;;;9.70;7.30;;;7.50;88.50;;;;;;4250603;27;20051;-71
2021/03/05 03:50:24;;;;;;;12.32;8.38;;;7.50;89.10;;;;;;4250000;27;20091;-71
2021/03/05 03:52:31;;;;;;;15.77;8.98;;;7.60;88.60;;;;;;4250797;27;20481;-71
2021/03/05 03:54:34;;;;;;;10.60;7.07;;;7.40;88.60;;;;;;4249936;27;20055;-71
2021/03/05 03:56:38;;;;;;;13.73;8.30;;;7.40;89.10;;;;;;4249977;27;20047;-72
2021/03/05 03:58:41;;;;;;;11.93;8.35;;;7.20;89.70;;;;;;4250543;27;20043;-72
2021/03/05 04:00:45;;;;;;;13.82;9.07;;;7.30;89.50;;;;;;4252005;27;20471;-72
2021/03/05 04:02:49;;;;;;;17.38;8.23;;;7.30;89.40;;;;;;4250061;27;20046;-71
2021/03/05 04:04:54;;;;;;;10.13;7.03;;;7.30;90.10;;;;;;4230071;28;20048;-71
2021/03/05 04:06:58;;;;;;;13.35;7.18;;;7.10;90.50;;;;;;4250618;27;20507;-71
2021/03/05 04:09:01;;;;;;;12.85;7.47;;;7.10;90.20;;;;;;4248981;27;20051;-72
2021/03/05 04:11:06;;;;;;;12.85;6.32;;;7.20;90.20;;;;;;4233357;28;20047;-73
2021/03/05 04:13:08;;;;;;;14.40;7.63;;;7.60;90.90;;;;;;4254586;27;20100;-76
2021/03/05 04:15:12;;;;;;;11.57;6.78;;;7.70;90.30;;;;;;4251791;27;20047;-73
2021/03/05 04:17:14;;;;;;;11.82;6.38;;;7.50;88.30;;;;;;4248482;27;20433;-71
2021/03/05 04:19:16;;;;;;;13.65;6.65;;;7.20;88.80;;;;;;4248267;27;20122;-71
2021/03/05 04:21:22;;;;;;;9.20;5.57;;;7.00;88.30;;;;;;4247836;27;20043;-70
2021/03/05 04:23:24;;;;;;;12.73;4.65;;;7.30;88.10;;;;;;4248474;27;20053;-70
2021/03/05 04:25:25;;;;;;;15.20;6.05;;;7.20;89.10;;;;;;4248465;27;20100;-70
2021/03/05 04:27:28;;;;;;;16.73;5.85;;;6.60;89.60;;;;;;4249372;27;20066;-70
2021/03/05 04:29:30;;;;;;;11.35;5.30;;;6.60;90.70;;;;;;4249410;27;20043;-70
2021/03/05 04:31:32;;;;;;;16.55;5.00;;;7.10;90.50;;;;;;4249992;27;20051;-70
2021/03/05 04:33:35;;;;;;;13.82;5.10;;;7.20;90.90;;;;;;4254467;27;20050;-71
2021/03/05 04:35:37;;;;;;;9.82;4.85;;;7.00;89.10;;;;;;4235998;28;20483;-70
2021/03/05 04:37:38;;;;;;;14.38;5.22;;;6.70;88.50;;;;;;4253859;27;20049;-70
2021/03/05 04:39:40;;;;;;;17.70;4.32;;;7.20;89.60;;;;;;4253455;27;20047;-71
2021/03/05 04:41:42;;;;;;;18.30;4.72;;;6.80;88.00;;;;;;4253939;27;20039;-70
2021/03/05 04:43:45;;;;;;;11.43;4.38;;;6.70;87.60;;;;;;4253532;27;20058;-70
2021/03/05 04:45:47;;;;;;;12.82;4.78;;;7.00;90.50;;;;;;4249824;27;20051;-70
2021/03/05 04:47:49;;;;;;;20.33;4.72;;;6.40;88.20;;;;;;4246550;27;20525;-70
2021/03/05 04:49:51;;;;;;;8.30;3.25;;;6.50;89.00;;;;;;4248244;27;20047;-71
2021/03/05 04:51:53;;;;;;;14.20;4.03;;;6.70;91.00;;;;;;4248262;27;20043;-70
2021/03/05 04:53:55;;;;;;;11.88;3.67;;;7.00;91.40;;;;;;4248316;28;20313;-70
2021/03/05 04:55:56;;;;;;;19.45;4.97;;;6.90;89.10;;;;;;4247127;28;20047;-70
2021/03/05 04:57:58;;;;;;;14.98;4.50;;;6.80;88.50;;;;;;4246949;28;20043;-74
2021/03/05 05:00:01;;;;;;;10.52;4.47;;;6.90;87.80;;;;;;4246438;28;20126;-70
2021/03/05 05:02:02;;;;;;;13.07;4.22;;;6.70;87.70;;;;;;4246310;28;20100;-70
2021/03/05 05:04:05;;;;;;;11.52;3.47;;;6.80;86.90;;;;;;4246836;27;20043;-71
2021/03/05 05:06:06;;;;;;;12.98;3.38;;;6.80;85.50;;;;;;4249871;27;20047;-71
2021/03/05 05:08:08;;;;;;;14.48;3.08;;;6.70;82.40;;;;;;4249768;27;20043;-70
2021/03/05 05:10:11;;;;;;;8.07;2.63;;;6.70;84.50;;;;;;4249576;27;20050;-70
2021/03/05 05:12:12;;;;;;;11.18;2.67;;;7.00;86.70;;;;;;4249530;27;20460;-71
2021/03/05 05:14:14;;;;;;;9.82;3.42;;;6.90;82.50;;;;;;4249909;27;20043;-71
2021/03/05 05:16:17;;;;;;;10.23;3.00;;;6.80;81.50;;;;;;4249464;27;20050;-71
2021/03/05 05:18:19;;;;;;;9.35;2.78;;;6.80;82.20;;;;;;4249867;27;20043;-70
2021/03/05 05:20:21;;;;;;;9.35;2.58;;;6.80;83.00;;;;;;4249501;27;20058;-71
2021/03/05 05:22:23;;;;;;;11.10;3.30;;;6.90;83.20;;;;;;4249965;27;20055;-71
2021/03/05 05:24:26;;;;;;;10.52;2.92;;;6.80;82.60;;;;;;4231436;28;20050;-71
2021/03/05 05:26:28;;;;;;;11.98;2.60;;;7.00;84.10;;;;;;4249595;27;20136;-70
2021/03/05 05:28:30;;;;;;;11.68;1.92;;;6.70;78.20;;;;;;4252227;27;20532;-71
2021/03/05 05:30:32;;;;;;;7.55;2.40;;;6.50;77.30;;;;;;4254133;27;20047;-71
2021/03/05 05:32:34;;;;;;;9.23;2.85;;;6.60;80.90;;;;;;4253985;27;20043;-70
2021/03/05 05:34:36;;;;;;;14.52;2.60;;;6.30;78.30;;;;;;4254806;27;20043;-70
2021/03/05 05:36:38;;;;;;;18.50;2.53;;;6.60;78.20;;;;;;4255291;27;20053;-71
2021/03/05 05:38:39;;;;;;;12.95;2.20;;;7.00;79.00;;;;;;4254961;27;20096;-70
2021/03/05 05:40:41;;;;;;;15.90;3.30;;;7.20;83.40;;;;;;4253462;27;20054;-72
2021/03/05 05:42:46;;;;;;;10.55;2.47;;;6.80;74.00;;;;;;4250712;27;20051;-71
2021/03/05 05:44:49;;;;;;;11.85;2.97;;;6.70;76.10;;;;;;4232075;28;20047;-71
2021/03/05 05:46:51;;;;;;;14.68;2.50;;;6.70;76.20;;;;;;4250635;27;20499;-70
2021/03/05 05:48:54;;;;;;;19.27;3.28;;;6.70;75.80;;;;;;4250173;27;20063;-70
2021/03/05 05:50:58;;;;;;;15.55;3.00;;;6.90;77.10;;;;;;4249624;27;20055;-71
2021/03/05 05:53:02;;;;;;;10.55;2.65;;;6.80;77.00;;;;;;4249298;27;20042;-69
2021/03/05 05:55:05;;;;;;;11.60;2.20;;;6.40;76.30;;;;;;4252139;27;20100;-70
2021/03/05 05:57:07;;;;;;;11.10;2.55;;;6.60;79.80;;;;;;4255029;27;20556;-70
2021/03/05 05:59:09;;;;;;;18.52;3.42;;;6.40;79.30;;;;;;4250245;27;20096;-70
2021/03/05 06:01:11;;;;;;;33.85;4.13;;;6.50;76.60;;;;;;4249605;27;20043;-71
2021/03/05 06:03:14;;;;;;;23.85;3.58;;;6.70;77.70;;;;;;4249153;27;20092;-71
2021/03/05 06:05:17;;;;;;;7.55;2.20;;;7.00;80.90;;;;;;4249094;27;20043;-71
2021/03/05 06:07:21;;;;;;;13.80;3.20;;;6.60;74.40;;;;;;4249868;27;20444;-71
2021/03/05 06:09:39;;;;;;;10.35;2.75;;;6.60;74.10;;;;;;4249841;27;20605;-71
2021/03/05 06:11:41;;;;;;;8.70;2.30;;;6.70;74.40;;;;;;4250263;27;20451;-71
2021/03/05 06:13:44;;;;;;;12.07;2.85;;;6.80;79.60;;;;;;4249728;27;20631;-71
2021/03/05 06:16:05;;;;;;;14.25;3.10;;;7.30;77.50;;;;;;4248127;27;20043;-71
2021/03/05 06:18:27;;;;;;;8.35;2.53;;;7.10;74.80;;;;;;4248513;27;20223;-71
2021/03/05 06:20:44;;;;;;;20.02;4.05;;;6.90;76.90;;;;;;4248965;27;20051;-71
2021/03/05 06:23:06;;;;;;;18.98;3.70;;;6.80;74.40;;;;;;4248474;27;20130;-71
2021/03/05 06:25:11;;;;;;;18.92;3.75;;;7.00;74.50;;;;;;4248428;27;20128;-71
2021/03/05 06:27:14;;;;;;;10.95;3.10;;;7.00;74.90;;;;;;4248633;27;20047;-71
2021/03/05 06:29:17;;;;;;;23.67;4.50;;;6.60;73.80;;;;;;4248521;27;20116;-71
2021/03/05 06:31:19;;;;;;;18.10;3.80;;;6.50;73.50;;;;;;4248472;27;20047;-71
2021/03/05 06:33:25;;;;;;;12.70;3.53;;;6.50;72.90;;;;;;4230203;28;20051;-71
2021/03/05 06:35:27;;;;;;;16.23;3.33;;;6.50;75.30;;;;;;4248591;27;20437;-71
2021/03/05 06:37:45;;;;;;;9.80;2.97;;;6.40;72.10;;;;;;4248360;27;20061;-71
2021/03/05 06:40:06;;;;;;;15.20;3.15;;;6.40;71.80;;;;;;4248542;27;20600;-70
2021/03/05 06:42:10;;;;;;;15.98;3.83;;;6.50;74.80;;;;;;4248291;27;20453;-71
2021/03/05 06:44:11;;;;;;;17.05;5.15;;;6.80;71.40;;;;;;4248191;27;20079;-71
2021/03/05 06:46:26;;;;;;;17.08;3.38;;;6.60;71.20;;;;;;4248278;27;20092;-71
2021/03/05 06:48:29;;;;;;;12.63;3.70;;;6.50;75.70;;;;;;4248100;27;20057;-70
2021/03/05 06:50:32;;;;;;;18.20;4.30;;;6.40;70.90;;;;;;4248332;27;20046;-71
2021/03/05 06:52:34;;;;;;;12.43;4.20;;;6.30;71.40;;;;;;4248103;27;20051;-71
2021/03/05 06:54:38;;;;;;;14.13;3.75;;;6.10;72.30;;;;;;4248302;27;20050;-71
2021/03/05 06:56:42;;;;;;;14.85;5.28;;;6.00;72.80;;;;;;4249083;27;20548;-71
2021/03/05 06:59:00;;;;;;;14.98;4.40;;;6.10;74.30;;;;;;4248996;27;20043;-71
2021/03/05 07:01:04;;;;;;;13.80;4.28;;;6.20;73.10;;;;;;4249355;27;20043;-70
2021/03/05 07:03:19;;;;;;;16.20;4.13;;;6.40;74.60;;;;;;4259254;27;20051;-70
2021/03/05 07:05:47;;;;;;;10.23;3.38;;;7.10;83.00;;;;;;4259903;27;20062;-70
2021/03/05 07:07:50;;;;;;;26.20;4.97;;;7.60;76.60;;;;;;4258415;27;20043;-71
2021/03/05 07:09:54;;;;;;;23.02;4.78;;;7.30;71.30;;;;;;4258590;27;20039;-72
2021/03/05 07:11:57;;;;;;;22.15;4.97;;;7.50;72.80;;;;;;4260234;27;20043;-71
2021/03/05 07:13:59;;;;;;;18.83;5.32;;;7.30;74.10;;;;;;4260149;27;20114;-70
2021/03/05 07:16:01;;;;;;;18.55;4.35;;;7.50;71.70;;;;;;4259192;27;20088;-71
2021/03/05 07:18:03;;;;;;;14.88;4.00;;;7.00;70.70;;;;;;4263459;27;20064;-71
2021/03/05 07:20:06;;;;;;;19.73;4.65;;;6.90;74.80;;;;;;4261570;27;20050;-71
2021/03/05 07:22:09;;;;;;;10.52;3.50;;;6.80;73.70;;;;;;4261610;27;20047;-73
2021/03/05 07:24:14;;;;;;;18.67;3.40;;;7.50;80.40;;;;;;4261810;27;20053;-71
2021/03/05 07:26:19;;;;;;;12.95;4.35;;;7.60;77.40;;;;;;4261118;27;20055;-70
2021/03/05 07:28:23;;;;;;;19.13;3.67;;;7.00;70.80;;;;;;4241789;27;20040;-70
2021/03/05 07:30:26;;;;;;;;;;;7.40;78.50;;;;;;4261444;27;20035;-72
2021/03/05 07:32:37;;;;;;;13.43;3.40;;;7.20;72.00;;;;;;4258573;27;19979;-72
2021/03/05 07:34:51;;;;;;;18.67;5.15;;;7.30;72.30;;;;;;4258934;27;20534;-76
2021/03/05 07:36:56;;;;;;;20.95;4.07;;;7.10;75.60;;;;;;4257800;27;20042;-71
2021/03/05 07:39:03;;;;;;;18.33;3.35;;;7.10;74.80;;;;;;4260603;27;20046;-71
2021/03/05 07:41:06;;;;;;;22.02;4.20;;;7.40;75.90;;;;;;4239206;27;20579;-71
2021/03/05 07:43:11;;;;;;;16.65;3.40;;;6.80;69.90;;;;;;4254304;27;20134;-71
2021/03/05 07:45:14;;;;;;;15.50;3.45;;;6.70;69.70;;;;;;4256822;27;20046;-71
2021/03/05 07:47:16;;;;;;;20.17;3.50;;;7.20;71.00;;;;;;4256118;27;20055;-71
2021/03/05 07:49:27;;;;;;;24.45;4.13;;;7.30;72.10;;;;;;4258739;27;20039;-70
2021/03/05 07:51:29;;;;;;;16.95;3.75;;;6.70;69.30;;;;;;4259120;27;20542;-71
2021/03/05 07:53:49;;;;;;;32.72;4.50;;;6.60;72.60;;;;;;4256389;27;20491;-70
2021/03/05 07:55:53;;;;;;;20.58;4.30;;;7.20;75.10;;;;;;4237160;27;20584;-70
2021/03/05 07:57:55;;;;;;;21.45;3.67;;;7.60;71.70;;;;;;4251196;27;20046;-70
2021/03/05 08:00:02;;;;;;;16.80;3.33;;;7.60;73.20;;;;;;4231410;27;20054;-70
2021/03/05 08:02:04;;;;;;;19.27;4.30;;;7.90;72.00;;;;;;4255229;27;20104;-71
2021/03/05 08:04:06;;;;;;;13.70;4.30;;;7.80;70.50;;;;;;4252161;27;20043;-71
2021/03/05 08:06:26;;;;;;;25.00;4.35;;;7.40;68.30;;;;;;4254477;27;20130;-70
2021/03/05 08:08:29;;;;;;;14.95;4.13;;;7.60;73.10;;;;;;4251052;27;20165;-72
2021/03/05 08:10:35;;;;;;;16.75;3.72;;;7.40;74.90;;;;;;4250922;27;20039;-72
2021/03/05 08:12:42;;;;;;;17.58;4.45;;;7.60;74.70;;;;;;4255165;27;20072;-73
2021/03/05 08:14:43;;;;;;;19.38;5.75;;;7.60;72.50;;;;;;4254548;27;20494;-72
2021/03/05 08:16:47;;;;;;;26.00;6.13;;;7.10;65.60;;;;;;4256114;27;20486;-72
2021/03/05 08:18:49;;;;;;;24.48;5.18;;;7.10;68.40;;;;;;4258431;27;20046;-72
2021/03/05 08:20:52;;;;;;;28.60;6.10;;;6.70;68.00;;;;;;4256480;27;20047;-70
2021/03/05 08:23:04;;;;;;;22.15;6.13;;;6.60;68.80;;;;;;4259588;27;20038;-72
2021/03/05 08:25:22;;;;;;;28.80;5.25;;;6.50;67.90;;;;;;4256575;27;20078;-71
2021/03/05 08:27:37;;;;;;;25.90;6.20;;;6.60;68.80;;;;;;4253010;27;20096;-72
2021/03/05 08:30:03;;;;;;;25.10;6.40;;;6.40;68.80;;;;;;4255558;27;20121;-70
2021/03/05 08:32:26;;;;;;;15.25;5.78;;;6.50;68.90;;;;;;4255185;27;20447;-73
2021/03/05 08:34:29;;;;;;;36.92;6.93;;;6.50;71.10;;;;;;4254985;27;20521;-72
2021/03/05 08:36:46;;;;;;;24.83;6.28;;;6.20;69.80;;;;;;4255693;27;20042;-72
2021/03/05 08:38:48;;;;;;;33.92;6.65;;;6.50;70.50;;;;;;4254803;27;20045;-72
2021/03/05 08:40:53;;;;;;;22.27;7.32;;;6.70;69.60;;;;;;4255999;27;20068;-72
2021/03/05 08:42:57;;;;;;;22.45;7.18;;;6.80;68.20;;;;;;4254919;27;20035;-71
2021/03/05 08:45:11;;;;;;;44.47;6.90;;;6.10;68.70;;;;;;4254855;27;20047;-72
2021/03/05 08:47:14;;;;;;;21.90;5.40;;;6.00;69.10;;;;;;4255485;27;20087;-72
2021/03/05 08:49:17;;;;;;;16.98;5.70;;;6.20;70.90;;;;;;4235625;27;20051;-71
2021/03/05 08:51:21;;;;;;;24.67;6.57;;;6.60;71.80;;;;;;4256145;27;20470;-72
2021/03/05 08:53:24;;;;;;;19.42;6.53;;;6.50;70.60;;;;;;4260676;27;20506;-72
2021/03/05 08:55:29;;;;;;;19.85;5.18;;;6.60;68.70;;;;;;4255632;27;20119;-72
2021/03/05 08:57:38;;;;;;;17.02;6.07;;;6.70;70.00;;;;;;4251692;27;20039;-73
2021/03/05 08:59:39;;;;;;;19.88;6.18;;;6.80;69.60;;;;;;4254633;27;20091;-71
2021/03/05 09:01:43;;;;;;;30.50;5.87;;;6.80;69.80;;;;;;4252071;27;20045;-72
2021/03/05 09:03:46;;;;;;;20.27;6.40;;;6.60;68.80;;;;;;4237293;28;20129;-71
2021/03/05 09:05:50;;;;;;;24.75;6.15;;;6.80;70.60;;;;;;4255646;27;20048;-72
2021/03/05 09:07:53;;;;;;;20.08;6.85;;;6.70;68.70;;;;;;4257537;27;20046;-72
2021/03/05 09:09:57;;;;;;;23.38;5.03;;;6.70;69.00;;;;;;4256190;27;20074;-73
2021/03/05 09:12:05;;;;;;;21.98;7.35;;;6.70;68.90;;;;;;4256066;27;20426;-73
2021/03/05 09:14:21;;;;;;;23.67;6.53;;;6.80;70.00;;;;;;4258253;27;20053;-73
2021/03/05 09:16:24;;;;;;;;;;;6.70;70.80;;;;;;4257733;27;20425;-73
2021/03/05 09:18:29;;;;;;;21.98;7.88;;;6.40;68.40;;;;;;4257011;27;19923;-73
2021/03/05 09:20:37;;;;;;;17.50;6.70;;;6.20;68.80;;;;;;4256698;27;20040;-73
2021/03/05 09:22:39;;;;;;;17.30;6.10;;;6.30;70.40;;;;;;4238430;28;20493;-73
2021/03/05 09:25:06;;;;;;;27.83;8.98;;;6.30;71.60;;;;;;4256472;27;20127;-73
2021/03/05 09:27:18;;;;;;;16.95;7.32;;;6.60;71.90;;;;;;4239960;27;20054;-72
2021/03/05 09:29:28;;;;;;;19.13;8.00;;;6.90;70.50;;;;;;4238989;28;20527;-72
2021/03/05 09:31:30;;;;;;;19.15;7.63;;;6.90;68.00;;;;;;4255516;27;20604;-72
2021/03/05 09:33:34;;;;;;;20.73;8.77;;;7.00;69.90;;;;;;4255797;27;20043;-73
2021/03/05 09:35:37;;;;;;;23.73;9.25;;;6.80;68.50;;;;;;4258153;27;20074;-73
2021/03/05 09:37:41;;;;;;;32.60;6.88;;;7.00;69.20;;;;;;4254710;27;20138;-73
2021/03/05 09:39:44;;;;;;;19.40;8.27;;;7.20;71.00;;;;;;4255843;27;20497;-72
2021/03/05 09:41:47;;;;;;;26.67;9.68;;;6.80;69.40;;;;;;4262876;27;20043;-73
2021/03/05 09:43:59;;;;;;;20.02;7.95;;;6.90;66.90;;;;;;4259381;27;20042;-72
2021/03/05 09:46:16;;;;;;;24.13;10.35;;;7.00;71.50;;;;;;4255151;27;20051;-72
2021/03/05 09:48:29;;;;;;;21.85;10.18;;;6.60;66.50;;;;;;4257579;27;20055;-73
2021/03/05 09:50:32;;;;;;;27.92;9.38;;;6.80;70.70;;;;;;4255015;27;20054;-72
2021/03/05 09:52:35;;;;;;;20.77;9.38;;;6.70;69.50;;;;;;4257898;27;20050;-72
2021/03/05 09:54:37;;;;;;;21.95;11.35;;;6.60;71.70;;;;;;4260177;27;20592;-72
2021/03/05 09:56:42;;;;;;;27.60;10.80;;;6.50;73.10;;;;;;4260334;27;20039;-72
2021/03/05 09:58:58;;;;;;;23.55;10.32;;;6.50;69.50;;;;;;4258283;27;20076;-73
2021/03/05 10:01:01;;;;;;;32.00;10.93;;;6.60;71.70;;;;;;4261962;27;20122;-72
2021/03/05 10:03:05;;;;;;;24.55;8.45;;;6.50;71.40;;;;;;4258997;27;20087;-72
2021/03/05 10:05:08;;;;;;;16.08;9.70;;;6.80;70.20;;;;;;4259068;27;20460;-72
2021/03/05 10:07:10;;;;;;;21.95;8.93;;;6.50;66.50;;;;;;4260207;27;20054;-72
2021/03/05 10:09:15;;;;;;;18.83;9.25;;;6.60;71.20;;;;;;4258748;27;20100;-72
2021/03/05 10:11:27;;;;;;;;;;;6.30;65.90;;;;;;4260023;27;20046;-72
2021/03/05 10:13:52;;;;;;;27.05;8.85;;;6.10;65.60;;;;;;4256248;27;20307;-72
2021/03/05 10:15:53;;;;;;;25.27;9.05;;;6.40;65.70;;;;;;4255183;27;20051;-72
2021/03/05 10:17:58;;;;;;;25.08;9.45;;;6.50;64.80;;;;;;4259911;27;20053;-72
2021/03/05 10:20:03;;;;;;;19.08;7.95;;;6.20;64.90;;;;;;4260190;27;20394;-72
2021/03/05 10:22:06;;;;;;;15.05;7.07;;;6.00;64.40;;;;;;4255791;27;20480;-74
2021/03/05 10:24:09;;;;;;;16.33;7.75;;;6.40;66.30;;;;;;4260741;27;20055;-74
2021/03/05 10:26:14;;;;;;;23.90;8.55;;;6.70;65.80;;;;;;4258014;27;20055;-74
2021/03/05 10:28:23;;;;;;;24.00;7.78;;;6.90;64.00;;;;;;4261004;27;20039;-75
2021/03/05 10:30:26;;;;;;;22.38;7.13;;;7.20;66.10;;;;;;4259178;27;20049;-75
2021/03/05 10:32:30;;;;;;;20.10;7.75;;;7.50;64.10;;;;;;4242052;27;20043;-75
2021/03/05 10:34:35;;;;;;;17.90;6.70;;;7.30;60.70;;;;;;4263408;27;20103;-74
2021/03/05 10:36:36;;;;;;;17.92;7.07;;;7.50;61.00;;;;;;4258858;27;20513;-75
2021/03/05 10:38:38;;;;;;;12.95;6.15;;;7.10;59.30;;;;;;4256373;27;20075;-77
2021/03/05 10:40:40;;;;;;;13.25;5.00;;;7.40;59.90;;;;;;4258751;27;20043;-74
2021/03/05 10:43:06;;;;;;;19.75;7.07;;;7.80;66.70;;;;;;4262571;27;20139;-76
2021/03/05 10:45:10;;;;;;;24.83;6.70;;;7.70;58.30;;;;;;4266874;27;20092;-75
2021/03/05 10:47:14;;;;;;;16.83;5.70;;;7.00;59.30;;;;;;4246265;27;20043;-73
2021/03/05 10:49:16;;;;;;;16.10;7.40;;;6.90;60.80;;;;;;4258665;27;20085;-73
2021/03/05 10:51:18;;;;;;;17.75;6.55;;;7.10;60.00;;;;;;4258475;27;20047;-73